Airfield :
LOGIN :

Register | Disclaimer

   EN    FR    IT 

 










Legend :    VFR   Marginal VFR   IFR   Intensive IFR   Very Intensive IFR
Visi :
Ceiling :
>= 8 km
>= 3000ft
5 to 8 km
1000 to 3000 ft
1500m to 5 km
500 to 1000 ft
800 to 1500m
200 to 500 ft
< 800m
< 200 ft
Symbols :   Thunderstorms  Fog  Heavy snow  Heavy precipitations  Wind > 20 kt
SIGMETs :     Misc.  Thunderstorms  Icing  Turbulence  Mountain Waves  Volcanic Ashes






- Airport Elevation : 364 ft


LFAQ - Albert Bray

CURRENT METAR :
  • 121030Z AUTO 24011KT CAVOK 19/14 Q1032 NOSIG

EXPIRED METARs :
  • 121000Z AUTO 23009KT 9999 FEW019 18/14 Q1032 NOSIG
  • 120930Z AUTO 22007KT 190V250 CAVOK 18/14 Q1032 NOSIG
  • 120900Z AUTO 23007KT 9999 FEW014 17/14 Q1033 NOSIG
  • 120830Z AUTO 21003KT 170V240 CAVOK 16/13 Q1032 NOSIG
  • 120800Z AUTO 21006KT 9999 FEW008 15/13 Q1032 NOSIG
  • 120730Z AUTO 20004KT 8000 NSC 14/13 Q1032 NOSIG
  • 120700Z AUTO 18006KT 6000 NSC 13/12 Q1032 NOSIG
  • 120630Z AUTO 17005KT 4400 BR NSC 12/12 Q1032 BECMG 9999 NSW
  • 120600Z AUTO 16007KT 3600 BR BKN040 12/12 Q1032 BECMG 9999 NSW

TAF TAF LFAQ
Valid from the 12 at 09:00 until the 12 at 18:00 UTC


120800Z 1209/1218 20005KT CAVOK



MET'MAP, your aeronautical weather chart ! - Copyright ORBIFLY December 2007 - Disclaimer

ORBIFLY MET'MAP TEAM :

Programming & Development : Alexandra Zaïnal
Original concept : Baudouin d'Aumeries
Technical & hardware support : Manuel Goepfert
Assistance : Marc-Olivier Méhu




SOURCES & CREDITS :

   NOAA